Time;durP1;ratioP1;P1;durP2;ratioP2;P2;SDS_P1;SDS_P2;PMS_P1;PMS_P2;Temp;Humidity;BMP_temperature;BMP_pressure;BME280_temperature;BME280_humidity;BME280_pressure;Samples;Min_cycle;Max_cycle;Signal;HPM_P1;HPM_P2
2022/07/13 00:01:16;;;;;;;1.43;1.17;;;27.60;56.10;;;;;;4931350;29;20513;-71
2022/07/13 00:03:44;;;;;;;3.30;1.37;;;27.60;56.20;;;;;;4935552;29;20483;-72
2022/07/13 00:06:15;;;;;;;2.87;1.60;;;27.60;56.20;;;;;;4935708;29;20462;-71
2022/07/13 00:08:44;;;;;;;1.30;1.03;;;27.50;56.20;;;;;;4929697;29;20450;-71
2022/07/13 00:11:15;;;;;;;1.40;1.03;;;27.60;56.20;;;;;;4936004;29;20461;-71
2022/07/13 00:13:44;;;;;;;1.70;1.60;;;27.50;56.10;;;;;;4935603;29;20459;-72
2022/07/13 00:16:12;;;;;;;2.23;1.30;;;27.50;56.10;;;;;;4927735;29;20472;-73
2022/07/13 00:18:40;;;;;;;1.97;1.33;;;27.50;56.20;;;;;;4935933;29;20477;-71
2022/07/13 00:21:15;;;;;;;1.40;1.10;;;27.50;56.20;;;;;;4935747;29;20475;-71
2022/07/13 00:23:44;;;;;;;1.50;1.20;;;27.50;56.10;;;;;;4935332;29;20538;-71
2022/07/13 00:26:19;;;;;;;1.10;0.97;;;27.50;56.10;;;;;;4935714;29;20452;-71
2022/07/13 00:28:47;;;;;;;2.03;1.57;;;27.40;56.10;;;;;;4918646;29;20468;-71
2022/07/13 00:31:15;;;;;;;1.63;1.37;;;27.40;56.10;;;;;;4932397;29;20473;-72
2022/07/13 00:33:43;;;;;;;2.07;1.20;;;27.40;56.10;;;;;;4928733;29;20863;-73
2022/07/13 00:36:17;;;;;;;1.70;1.47;;;27.40;56.10;;;;;;4935134;29;20479;-72
2022/07/13 00:38:48;;;;;;;1.63;1.20;;;27.40;56.00;;;;;;4929892;29;20475;-71
2022/07/13 00:41:16;;;;;;;2.40;1.33;;;27.40;56.10;;;;;;4921689;29;20468;-71
2022/07/13 00:43:44;;;;;;;2.30;1.43;;;27.40;56.10;;;;;;4935156;29;20497;-72
2022/07/13 00:46:18;;;;;;;1.43;1.23;;;27.30;56.00;;;;;;4918792;29;20478;-71
2022/07/13 00:48:47;;;;;;;1.77;1.40;;;27.30;56.00;;;;;;4925034;29;20478;-72
2022/07/13 00:51:15;;;;;;;1.90;1.40;;;27.30;56.10;;;;;;4918745;29;20539;-72
2022/07/13 00:53:43;;;;;;;2.07;1.50;;;27.30;56.10;;;;;;4935263;29;20478;-74
2022/07/13 00:56:17;;;;;;;2.30;1.20;;;27.30;56.10;;;;;;4918474;29;20526;-71
2022/07/13 00:58:46;;;;;;;1.43;1.33;;;27.30;56.10;;;;;;4935084;29;20453;-72
2022/07/13 01:01:14;;;;;;;1.60;1.20;;;27.30;56.10;;;;;;4935412;29;20452;-72
2022/07/13 01:03:42;;;;;;;1.60;1.37;;;27.30;56.10;;;;;;4935381;29;20475;-71
2022/07/13 01:06:16;;;;;;;1.70;1.27;;;27.30;56.10;;;;;;4934928;29;20927;-71
2022/07/13 01:08:44;;;;;;;1.30;1.10;;;27.20;56.10;;;;;;4920910;29;20463;-72
2022/07/13 01:11:23;;;;;;;1.30;1.10;;;27.20;56.20;;;;;;4938838;29;20499;-75
2022/07/13 01:13:52;;;;;;;1.73;1.10;;;27.20;56.10;;;;;;4922668;29;20479;-71
2022/07/13 01:16:20;;;;;;;1.10;1.00;;;27.20;56.10;;;;;;4919974;29;20859;-72
2022/07/13 01:18:51;;;;;;;2.40;1.10;;;27.20;56.20;;;;;;4929648;29;20447;-72
2022/07/13 01:21:19;;;;;;;2.23;1.30;;;27.20;56.10;;;;;;4938575;29;20843;-71
2022/07/13 01:23:49;;;;;;;1.70;1.30;;;27.20;56.20;;;;;;4935666;29;20553;-72
2022/07/13 01:26:17;;;;;;;1.80;1.30;;;27.20;56.10;;;;;;4938878;29;21250;-71
2022/07/13 01:28:46;;;;;;;1.50;1.17;;;27.20;56.10;;;;;;4937539;29;20478;-72
2022/07/13 01:31:33;;;;;;;1.93;1.40;;;27.20;56.10;;;;;;4935406;29;20472;-73
2022/07/13 01:34:02;;;;;;;1.80;1.30;;;27.20;56.20;;;;;;4931238;29;20475;-72
2022/07/13 01:36:31;;;;;;;1.90;1.40;;;27.10;56.10;;;;;;4938404;29;20576;-71
2022/07/13 01:39:00;;;;;;;3.20;1.23;;;27.10;56.10;;;;;;4938128;29;20464;-72
2022/07/13 01:41:29;;;;;;;1.60;1.20;;;27.10;56.10;;;;;;4938435;29;20456;-72
2022/07/13 01:43:58;;;;;;;1.40;1.30;;;27.10;56.10;;;;;;4921660;29;20444;-72
2022/07/13 01:46:28;;;;;;;1.73;1.50;;;27.10;56.10;;;;;;4938633;29;20436;-71
2022/07/13 01:48:58;;;;;;;1.53;1.10;;;27.10;56.20;;;;;;4918574;29;20800;-72
2022/07/13 01:51:27;;;;;;;1.93;1.47;;;27.10;56.10;;;;;;4936417;29;20851;-71
2022/07/13 01:53:56;;;;;;;1.70;1.30;;;27.00;56.10;;;;;;4920965;29;20459;-71
2022/07/13 01:56:27;;;;;;;2.40;1.00;;;27.00;56.10;;;;;;4919554;29;20478;-71
2022/07/13 01:58:55;;;;;;;1.60;1.50;;;27.00;56.10;;;;;;4918842;29;20467;-71
2022/07/13 02:01:23;;;;;;;1.40;1.17;;;27.00;55.90;;;;;;4920571;29;20514;-73
2022/07/13 02:03:52;;;;;;;1.70;1.33;;;27.00;56.10;;;;;;4937271;29;20452;-72
2022/07/13 02:06:21;;;;;;;1.57;1.20;;;27.00;56.10;;;;;;4913815;29;20479;-71
2022/07/13 02:08:49;;;;;;;1.87;1.30;;;27.00;56.10;;;;;;4917323;29;20540;-71
2022/07/13 02:11:21;;;;;;;1.40;1.20;;;27.00;56.20;;;;;;4908306;29;20473;-72
2022/07/13 02:13:51;;;;;;;1.40;1.10;;;26.90;56.10;;;;;;4934975;29;20835;-72
2022/07/13 02:16:19;;;;;;;1.73;1.30;;;26.90;56.00;;;;;;4920686;29;20460;-71
2022/07/13 02:18:48;;;;;;;1.60;1.20;;;26.90;56.10;;;;;;4919417;29;21422;-71
2022/07/13 02:21:16;;;;;;;2.43;1.40;;;26.90;56.00;;;;;;4920042;29;20568;-71
2022/07/13 02:23:44;;;;;;;1.90;1.53;;;26.80;56.00;;;;;;4937779;29;20538;-72
2022/07/13 02:26:12;;;;;;;2.47;1.40;;;26.80;56.10;;;;;;4937310;29;20472;-71
2022/07/13 02:28:40;;;;;;;1.90;1.60;;;26.80;56.00;;;;;;4920161;29;20813;-72
2022/07/13 02:31:13;;;;;;;1.97;1.30;;;26.80;56.00;;;;;;4936315;29;20487;-72
2022/07/13 02:33:42;;;;;;;1.40;1.10;;;26.80;56.00;;;;;;4937390;29;20427;-71
2022/07/13 02:36:10;;;;;;;1.73;1.40;;;26.70;56.00;;;;;;4937499;29;20939;-71
2022/07/13 02:38:40;;;;;;;1.43;1.23;;;26.70;56.00;;;;;;4930855;29;20481;-72
2022/07/13 02:41:11;;;;;;;1.40;1.30;;;26.70;56.00;;;;;;4920548;29;20468;-72
2022/07/13 02:43:39;;;;;;;2.30;1.40;;;26.70;56.00;;;;;;4937254;29;20831;-71
2022/07/13 02:46:11;;;;;;;4.40;1.80;;;26.60;56.00;;;;;;4919984;29;20504;-73
2022/07/13 02:48:40;;;;;;;1.40;1.17;;;26.60;55.90;;;;;;4923588;29;20855;-72
2022/07/13 02:51:12;;;;;;;1.80;1.40;;;26.60;56.10;;;;;;4937206;29;20554;-71
2022/07/13 02:53:40;;;;;;;1.53;1.30;;;26.60;56.00;;;;;;4920351;29;20459;-71
2022/07/13 02:56:08;;;;;;;3.30;1.20;;;26.60;56.10;;;;;;4937091;29;20496;-71
2022/07/13 02:58:37;;;;;;;1.97;1.43;;;26.60;56.10;;;;;;4917078;29;20480;-72
2022/07/13 03:01:12;;;;;;;2.53;1.30;;;26.60;56.10;;;;;;4920078;29;20471;-71
2022/07/13 03:03:42;;;;;;;1.60;1.27;;;26.60;56.10;;;;;;4919785;29;20489;-71
2022/07/13 03:06:11;;;;;;;2.50;1.63;;;26.60;56.10;;;;;;4920061;29;20954;-72
2022/07/13 03:08:39;;;;;;;1.30;0.90;;;26.60;56.10;;;;;;4919272;29;20467;-71
2022/07/13 03:11:11;;;;;;;1.73;1.50;;;26.60;56.10;;;;;;4919881;29;20486;-71
2022/07/13 03:13:39;;;;;;;2.03;1.40;;;26.60;56.10;;;;;;4919870;29;20539;-71
2022/07/13 03:16:11;;;;;;;1.63;1.40;;;26.60;56.10;;;;;;4919616;29;20820;-71
2022/07/13 03:18:39;;;;;;;1.23;1.00;;;26.60;56.20;;;;;;4919444;29;20467;-71
2022/07/13 03:21:12;;;;;;;1.43;1.10;;;26.60;56.20;;;;;;4919242;29;20458;-72
2022/07/13 03:23:41;;;;;;;1.73;1.33;;;26.60;56.20;;;;;;4915941;29;20539;-73
2022/07/13 03:26:10;;;;;;;1.63;1.17;;;26.60;56.20;;;;;;4935163;29;20840;-71
2022/07/13 03:28:38;;;;;;;1.40;1.10;;;26.60;56.20;;;;;;4936418;29;20483;-71
2022/07/13 03:31:10;;;;;;;1.70;1.20;;;26.60;56.20;;;;;;4934554;29;20485;-71
2022/07/13 03:33:38;;;;;;;2.37;1.30;;;26.60;56.20;;;;;;4919383;29;20481;-72
2022/07/13 03:36:14;;;;;;;1.57;1.23;;;26.60;56.20;;;;;;4934949;29;20468;-72
2022/07/13 03:38:42;;;;;;;1.80;1.30;;;26.60;56.20;;;;;;4935374;29;20496;-72
2022/07/13 03:41:10;;;;;;;1.90;1.70;;;26.60;56.20;;;;;;4935293;29;20460;-75
2022/07/13 03:43:39;;;;;;;2.10;1.57;;;26.60;56.00;;;;;;4935512;29;20450;-71
2022/07/13 03:46:11;;;;;;;1.40;1.10;;;26.50;56.10;;;;;;4934469;29;20468;-71
2022/07/13 03:48:39;;;;;;;1.60;1.37;;;26.50;56.20;;;;;;4942728;29;20458;-71
2022/07/13 03:51:11;;;;;;;3.03;1.20;;;26.50;56.30;;;;;;4934105;29;20494;-71
2022/07/13 03:53:40;;;;;;;3.17;1.93;;;26.50;56.30;;;;;;4933350;29;20467;-72
2022/07/13 03:56:13;;;;;;;2.60;1.57;;;26.50;56.10;;;;;;4933801;29;20800;-72
2022/07/13 03:58:41;;;;;;;1.93;1.70;;;26.50;56.30;;;;;;4933506;29;21011;-71
2022/07/13 04:01:10;;;;;;;1.67;1.30;;;26.50;56.30;;;;;;4933846;29;20482;-71
2022/07/13 04:03:38;;;;;;;1.60;1.50;;;26.50;56.40;;;;;;4936126;29;20479;-71
2022/07/13 04:06:13;;;;;;;2.03;1.23;;;26.50;56.30;;;;;;4930539;29;21005;-71
2022/07/13 04:08:43;;;;;;;2.00;1.57;;;26.40;56.30;;;;;;4922346;29;20998;-71
2022/07/13 04:11:11;;;;;;;2.20;1.80;;;26.40;56.30;;;;;;4930076;29;20455;-71
2022/07/13 04:13:41;;;;;;;2.30;1.83;;;26.40;56.20;;;;;;4927230;29;20459;-71
2022/07/13 04:16:10;;;;;;;1.80;1.50;;;26.40;56.30;;;;;;4928778;29;20479;-71
2022/07/13 04:18:40;;;;;;;1.90;1.40;;;26.40;56.40;;;;;;4933619;29;20560;-71
2022/07/13 04:21:10;;;;;;;1.50;1.20;;;26.40;56.30;;;;;;4926986;29;20450;-71
2022/07/13 04:23:39;;;;;;;1.50;1.40;;;26.40;56.40;;;;;;4933182;29;20509;-71
2022/07/13 04:26:12;;;;;;;2.27;1.00;;;26.40;56.30;;;;;;4934528;29;20454;-71
2022/07/13 04:28:41;;;;;;;3.73;1.63;;;26.40;56.40;;;;;;4923112;29;20451;-71
2022/07/13 04:31:15;;;;;;;2.10;1.60;;;26.40;56.30;;;;;;4932241;29;20466;-71
2022/07/13 04:33:43;;;;;;;1.90;1.47;;;26.40;56.30;;;;;;4923505;29;20478;-73
2022/07/13 04:36:13;;;;;;;1.83;1.57;;;26.40;56.40;;;;;;4930632;29;20474;-72
2022/07/13 04:38:43;;;;;;;4.90;2.03;;;26.40;56.40;;;;;;4930299;29;20513;-73
2022/07/13 04:41:15;;;;;;;2.53;1.10;;;26.30;56.30;;;;;;4931524;29;20838;-72
2022/07/13 04:43:45;;;;;;;2.83;1.30;;;26.30;56.60;;;;;;4933790;29;20463;-73
2022/07/13 04:46:16;;;;;;;2.13;1.60;;;26.40;56.60;;;;;;4937037;29;20463;-72
2022/07/13 04:48:45;;;;;;;2.10;1.47;;;26.40;56.60;;;;;;4935849;29;20490;-72
2022/07/13 04:51:13;;;;;;;3.80;1.70;;;26.40;56.70;;;;;;4930813;29;21336;-72
2022/07/13 04:53:45;;;;;;;1.70;1.10;;;26.40;56.70;;;;;;4934414;29;20478;-72
2022/07/13 04:56:15;;;;;;;2.93;1.70;;;26.40;56.70;;;;;;4933014;29;20471;-73
2022/07/13 04:58:44;;;;;;;2.40;1.30;;;26.50;56.70;;;;;;4933117;29;20484;-72
2022/07/13 05:01:13;;;;;;;1.60;1.10;;;26.50;56.70;;;;;;4937450;29;20556;-81
2022/07/13 05:03:55;;;;;;;1.90;1.20;;;26.50;56.70;;;;;;4936439;29;20560;-73
2022/07/13 05:06:24;;;;;;;2.43;1.63;;;26.50;56.70;;;;;;4934896;29;20527;-74
2022/07/13 05:08:53;;;;;;;2.13;1.50;;;26.50;56.70;;;;;;4927182;29;20455;-72
2022/07/13 05:11:23;;;;;;;4.53;1.80;;;26.50;56.80;;;;;;4937003;29;20458;-72
2022/07/13 05:13:52;;;;;;;2.37;1.27;;;26.50;56.90;;;;;;4936632;29;20452;-73
2022/07/13 05:16:21;;;;;;;2.60;1.40;;;26.60;56.90;;;;;;4932282;29;20474;-75
2022/07/13 05:18:49;;;;;;;2.40;1.37;;;26.60;57.00;;;;;;4937893;29;20576;-72
2022/07/13 05:21:24;;;;;;;4.83;1.90;;;26.60;57.00;;;;;;4937087;29;20456;-72
2022/07/13 05:23:53;;;;;;;2.53;1.80;;;26.60;57.10;;;;;;4935066;29;20489;-72
2022/07/13 05:26:23;;;;;;;3.00;1.60;;;26.60;57.20;;;;;;4930489;29;20477;-73
2022/07/13 05:28:52;;;;;;;5.27;2.00;;;26.60;57.20;;;;;;4934168;29;20867;-72
2022/07/13 05:31:21;;;;;;;5.30;2.07;;;26.60;57.20;;;;;;4932728;29;20470;-72
2022/07/13 05:33:50;;;;;;;3.00;1.70;;;26.60;57.20;;;;;;4935883;29;20471;-72
2022/07/13 05:36:22;;;;;;;8.10;1.80;;;26.60;57.20;;;;;;4940570;29;20501;-72
2022/07/13 05:38:51;;;;;;;2.90;1.80;;;26.60;57.20;;;;;;4923593;29;20840;-73
2022/07/13 05:41:19;;;;;;;2.67;1.90;;;26.60;57.20;;;;;;4927739;29;20570;-73
2022/07/13 05:43:49;;;;;;;4.27;2.07;;;26.60;57.20;;;;;;4926045;29;20466;-72
2022/07/13 05:46:18;;;;;;;3.17;1.90;;;26.60;57.20;;;;;;4927531;29;20863;-74
2022/07/13 05:48:46;;;;;;;3.83;2.53;;;26.60;57.20;;;;;;4948090;29;20463;-72
2022/07/13 05:51:15;;;;;;;2.67;2.00;;;26.70;57.20;;;;;;4930491;29;20578;-72
2022/07/13 05:54:01;;;;;;;4.60;1.77;;;26.70;57.20;;;;;;4926682;29;20452;-72
2022/07/13 05:56:49;;;;;;;2.30;2.10;;;26.70;57.30;;;;;;4923830;29;20530;-72
2022/07/13 05:59:19;;;;;;;3.57;1.47;;;26.70;57.20;;;;;;4928286;29;20499;-72
2022/07/13 06:01:47;;;;;;;3.83;2.27;;;26.70;57.30;;;;;;4926899;29;20525;-75
2022/07/13 06:04:16;;;;;;;2.90;2.00;;;26.80;57.30;;;;;;4929881;29;20467;-73
2022/07/13 06:06:45;;;;;;;5.67;2.33;;;26.80;57.40;;;;;;4926261;29;20844;-72
2022/07/13 06:09:13;;;;;;;3.50;2.33;;;26.80;57.50;;;;;;4934408;29;20503;-72
2022/07/13 06:11:41;;;;;;;5.83;2.60;;;26.80;57.60;;;;;;4930779;29;20450;-72
2022/07/13 06:14:09;;;;;;;5.93;2.60;;;26.80;57.60;;;;;;4932608;29;20455;-75
2022/07/13 06:16:39;;;;;;;8.37;3.00;;;26.90;57.60;;;;;;4932938;29;20491;-73
2022/07/13 06:19:08;;;;;;;6.27;2.50;;;26.90;57.60;;;;;;4932860;29;20468;-72
2022/07/13 06:21:36;;;;;;;6.23;2.67;;;26.90;57.60;;;;;;4931969;29;20475;-72
2022/07/13 06:24:05;;;;;;;4.33;2.63;;;26.90;57.60;;;;;;4932476;29;20563;-73
2022/07/13 06:26:34;;;;;;;6.50;2.23;;;26.90;57.70;;;;;;4930946;29;20488;-72
2022/07/13 06:29:02;;;;;;;4.03;2.43;;;26.90;57.70;;;;;;4931880;29;20842;-72
2022/07/13 06:31:30;;;;;;;3.30;2.27;;;26.90;57.70;;;;;;4935520;29;20512;-72
2022/07/13 06:34:00;;;;;;;2.73;2.10;;;26.90;57.60;;;;;;4929361;29;20498;-72
2022/07/13 06:36:29;;;;;;;4.97;2.57;;;26.90;57.60;;;;;;4930256;29;20455;-72
2022/07/13 06:38:57;;;;;;;3.87;2.07;;;26.90;57.60;;;;;;4933135;29;21312;-72
2022/07/13 06:41:26;;;;;;;4.63;2.27;;;27.00;57.60;;;;;;4935537;29;20493;-72
2022/07/13 06:43:54;;;;;;;3.27;1.73;;;26.90;57.50;;;;;;4931192;29;20548;-72
2022/07/13 06:46:23;;;;;;;3.80;2.40;;;27.00;57.50;;;;;;4931197;29;20600;-72
2022/07/13 06:48:54;;;;;;;3.07;2.47;;;27.00;57.50;;;;;;4935528;29;20472;-72
2022/07/13 06:51:24;;;;;;;3.63;2.23;;;27.00;57.50;;;;;;4913793;29;20480;-72
2022/07/13 06:53:52;;;;;;;2.97;2.40;;;27.00;57.50;;;;;;4928993;29;20559;-72
2022/07/13 06:56:21;;;;;;;3.37;1.60;;;27.00;57.50;;;;;;4931793;29;20477;-72
2022/07/13 06:58:49;;;;;;;2.40;1.87;;;27.00;57.50;;;;;;4928471;29;20498;-72
2022/07/13 07:01:17;;;;;;;4.40;2.43;;;27.00;57.50;;;;;;4932343;29;20454;-72
2022/07/13 07:03:46;;;;;;;5.30;2.13;;;27.00;57.40;;;;;;4931912;29;20484;-71
2022/07/13 07:06:14;;;;;;;3.60;2.03;;;27.00;57.40;;;;;;4930232;29;20456;-72
2022/07/13 07:08:44;;;;;;;3.00;2.23;;;27.00;57.40;;;;;;4932329;29;20906;-71
2022/07/13 07:11:12;;;;;;;2.50;1.83;;;27.00;57.40;;;;;;4925375;29;20537;-72
2022/07/13 07:13:40;;;;;;;1.90;1.70;;;27.10;57.40;;;;;;4923578;29;20458;-72
2022/07/13 07:16:09;;;;;;;4.30;2.43;;;27.10;57.40;;;;;;4926982;29;20448;-72
2022/07/13 07:18:37;;;;;;;4.53;1.90;;;27.10;57.30;;;;;;4931557;29;20552;-72
2022/07/13 07:21:21;;;;;;;2.40;2.00;;;27.10;57.40;;;;;;4924799;29;20466;-71
2022/07/13 07:23:51;;;;;;;1.93;1.63;;;27.10;57.30;;;;;;4929232;29;20540;-71
2022/07/13 07:26:19;;;;;;;3.07;1.93;;;27.10;57.30;;;;;;4913360;29;20466;-72
2022/07/13 07:28:48;;;;;;;3.50;1.93;;;27.10;57.40;;;;;;4934841;29;20455;-72
2022/07/13 07:31:16;;;;;;;4.33;1.80;;;27.10;57.30;;;;;;4935177;29;20564;-71
2022/07/13 07:33:44;;;;;;;8.80;3.33;;;27.10;57.30;;;;;;4931816;29;20820;-73
2022/07/13 07:36:12;;;;;;;5.47;3.37;;;27.10;59.70;;;;;;4927516;29;20472;-71
2022/07/13 07:38:40;;;;;;;5.10;2.67;;;27.10;59.90;;;;;;4929117;29;20462;-77
2022/07/13 07:41:13;;;;;;;7.00;2.33;;;27.10;59.40;;;;;;4928258;29;20550;-71
2022/07/13 07:43:41;;;;;;;3.57;2.43;;;27.20;59.50;;;;;;4928530;29;20453;-71
2022/07/13 07:46:12;;;;;;;4.30;2.37;;;27.20;59.50;;;;;;4933374;29;20482;-71
2022/07/13 07:48:40;;;;;;;4.63;2.10;;;27.20;59.50;;;;;;4927738;29;20467;-73
2022/07/13 07:51:09;;;;;;;7.50;2.57;;;27.20;59.50;;;;;;4933138;29;21053;-72
2022/07/13 07:53:37;;;;;;;3.80;2.00;;;27.20;59.50;;;;;;4932845;29;20540;-70
2022/07/13 07:56:13;;;;;;;4.63;2.70;;;27.30;59.50;;;;;;4933817;29;20450;-71
2022/07/13 07:58:41;;;;;;;4.13;2.20;;;27.30;59.60;;;;;;4927276;29;20510;-71
2022/07/13 08:01:10;;;;;;;5.10;2.47;;;27.30;59.60;;;;;;4933632;29;20534;-72
2022/07/13 08:03:38;;;;;;;3.93;2.67;;;27.30;59.70;;;;;;4930550;29;20538;-71
2022/07/13 08:06:11;;;;;;;5.23;2.57;;;27.30;59.70;;;;;;4931233;29;20476;-71
2022/07/13 08:08:39;;;;;;;6.50;3.57;;;27.30;59.70;;;;;;4927057;29;20578;-71
2022/07/13 08:11:17;;;;;;;7.00;2.80;;;27.40;59.70;;;;;;4931768;29;20965;-71
2022/07/13 08:13:46;;;;;;;6.83;3.10;;;27.40;59.60;;;;;;4933897;29;20450;-71
2022/07/13 08:16:15;;;;;;;5.87;3.73;;;27.40;59.60;;;;;;4931001;29;20452;-71
2022/07/13 08:18:43;;;;;;;6.10;2.63;;;27.40;59.60;;;;;;4929060;29;20488;-71
2022/07/13 08:21:31;;;;;;;5.03;2.93;;;27.40;59.60;;;;;;4923434;29;20567;-72
2022/07/13 08:23:59;;;;;;;6.40;2.77;;;27.40;59.60;;;;;;4929085;29;20483;-70
2022/07/13 08:26:30;;;;;;;5.80;3.20;;;27.50;59.60;;;;;;4925053;29;20505;-71
2022/07/13 08:29:00;;;;;;;3.17;2.30;;;27.50;59.50;;;;;;4929104;29;20543;-72
2022/07/13 08:31:28;;;;;;;6.43;2.63;;;27.50;59.50;;;;;;4930396;29;20487;-71
2022/07/13 08:39:27;;;;;;;5.63;2.77;;;27.50;59.40;;;;;;4926575;29;20467;-71
2022/07/13 08:41:59;;;;;;;3.80;2.57;;;27.60;59.40;;;;;;4933473;29;20546;-70
2022/07/13 08:44:27;;;;;;;5.53;2.83;;;27.60;59.40;;;;;;4928605;29;20463;-71
2022/07/13 08:47:02;;;;;;;5.90;3.60;;;27.60;59.30;;;;;;4923649;29;20941;-72
2022/07/13 08:49:30;;;;;;;3.03;2.73;;;27.60;59.30;;;;;;4928032;29;20520;-71
2022/07/13 08:51:59;;;;;;;4.20;2.70;;;27.60;59.40;;;;;;4931353;29;20873;-71
2022/07/13 08:54:29;;;;;;;3.93;2.60;;;27.70;59.40;;;;;;4929679;29;20455;-71
2022/07/13 08:57:01;;;;;;;5.80;2.33;;;27.70;59.40;;;;;;4929327;29;20483;-74
2022/07/13 08:59:30;;;;;;;5.33;2.90;;;27.70;59.60;;;;;;4932078;29;20929;-73
2022/07/13 09:01:58;;;;;;;5.70;2.67;;;27.70;59.80;;;;;;4927950;29;20538;-72
2022/07/13 09:04:27;;;;;;;4.90;2.93;;;27.70;59.90;;;;;;4930551;29;20956;-71
2022/07/13 09:06:56;;;;;;;7.33;2.67;;;27.70;59.90;;;;;;4930553;29;20466;-72
2022/07/13 09:09:33;;;;;;;4.73;2.77;;;27.70;59.90;;;;;;4931949;29;20472;-71
2022/07/13 09:12:24;;;;;;;2.77;2.27;;;27.80;60.00;;;;;;4931153;29;20561;-71
2022/07/13 09:14:54;;;;;;;5.80;2.80;;;27.80;60.00;;;;;;4932596;29;20511;-73
2022/07/13 09:17:34;;;;;;;4.00;2.20;;;27.80;59.90;;;;;;4930597;29;20655;-72
2022/07/13 09:20:15;;;;;;;3.97;2.83;;;27.80;59.70;;;;;;4930857;29;20503;-72
2022/07/13 09:22:48;;;;;;;4.90;2.10;;;27.80;59.70;;;;;;4927320;29;20465;-70
2022/07/13 09:25:32;;;;;;;4.00;2.47;;;27.80;59.40;;;;;;4931905;29;20461;-71
2022/07/13 09:28:06;;;;;;;4.93;2.60;;;27.80;59.50;;;;;;4929926;29;20541;-72
2022/07/13 09:30:36;;;;;;;11.00;2.67;;;27.80;59.40;;;;;;4931797;29;20532;-70
2022/07/13 09:33:05;;;;;;;4.23;2.17;;;27.80;59.40;;;;;;4929042;29;20942;-71
2022/07/13 09:35:47;;;;;;;3.57;2.00;;;27.80;59.30;;;;;;4930825;29;20913;-71
2022/07/13 09:38:29;;;;;;;4.10;2.20;;;27.80;59.30;;;;;;4930752;29;20551;-70
2022/07/13 09:40:58;;;;;;;3.80;2.57;;;27.80;59.10;;;;;;4933385;29;20556;-69
2022/07/13 09:46:13;;;;;;;5.03;2.17;;;27.90;58.70;;;;;;4936282;29;20538;-70
2022/07/13 09:48:50;;;;;;;2.67;2.27;;;27.90;58.70;;;;;;4935334;29;20523;-69
2022/07/13 09:51:27;;;;;;;3.70;2.23;;;27.90;58.60;;;;;;4931019;29;20476;-70
2022/07/13 09:54:00;;;;;;;4.10;2.53;;;27.90;58.50;;;;;;4935908;29;20569;-71
2022/07/13 09:56:31;;;;;;;2.03;1.60;;;27.90;58.40;;;;;;4936283;29;20814;-69
2022/07/13 09:59:04;;;;;;;3.20;1.97;;;28.00;58.30;;;;;;4929322;29;20865;-69
2022/07/13 10:01:34;;;;;;;3.07;2.10;;;28.00;58.20;;;;;;4922218;29;20514;-69
2022/07/13 10:04:08;;;;;;;3.93;2.43;;;28.00;58.00;;;;;;4930648;29;20951;-69
2022/07/13 10:06:56;;;;;;;2.30;1.70;;;28.10;58.00;;;;;;4925851;29;20626;-69
2022/07/13 10:09:25;;;;;;;4.10;2.00;;;28.10;57.90;;;;;;4925537;29;20510;-69
2022/07/13 10:11:53;;;;;;;3.93;2.23;;;28.10;57.80;;;;;;4923260;29;20507;-69
2022/07/13 10:14:24;;;;;;;2.83;2.00;;;28.10;57.80;;;;;;4925713;29;20604;-69
2022/07/13 10:16:59;;;;;;;2.10;1.60;;;28.00;57.80;;;;;;4927135;29;20487;-72
2022/07/13 10:19:28;;;;;;;4.13;2.57;;;28.10;57.70;;;;;;4933184;29;20484;-69
2022/07/13 10:22:04;;;;;;;4.67;2.50;;;28.10;57.70;;;;;;4933219;29;20536;-69
2022/07/13 10:24:32;;;;;;;4.20;2.33;;;28.10;57.60;;;;;;4936061;29;20493;-69
2022/07/13 10:27:22;;;;;;;5.73;3.17;;;28.10;57.60;;;;;;4931475;29;20484;-69
2022/07/13 10:29:54;;;;;;;5.33;3.10;;;28.10;57.50;;;;;;4927873;29;20499;-69
2022/07/13 10:32:23;;;;;;;4.70;4.20;;;28.20;57.50;;;;;;4935230;29;21058;-69
2022/07/13 10:34:53;;;;;;;7.87;3.40;;;28.20;57.40;;;;;;4927702;29;20489;-71
2022/07/13 10:37:23;;;;;;;6.60;4.27;;;28.20;57.40;;;;;;4930764;29;20498;-70
2022/07/13 10:40:12;;;;;;;7.93;4.47;;;28.20;57.30;;;;;;4927595;29;20508;-71
2022/07/13 10:43:17;;;;;;;12.97;4.90;;;28.20;57.30;;;;;;4927134;29;20846;-69
2022/07/13 10:45:52;;;;;;;7.00;4.63;;;28.20;57.30;;;;;;4929165;29;20496;-73
2022/07/13 10:48:43;;;;;;;14.93;6.10;;;28.30;57.20;;;;;;4930029;29;20554;-69
2022/07/13 10:51:22;;;;;;;10.90;5.50;;;28.30;57.20;;;;;;4930854;29;20493;-74
2022/07/13 10:54:10;;;;;;;9.20;5.90;;;28.20;57.20;;;;;;4931946;29;20568;-72
2022/07/13 10:56:54;;;;;;;17.47;7.27;;;28.20;57.40;;;;;;4923431;29;20584;-78
2022/07/13 10:59:46;;;;;;;10.57;6.50;;;28.20;57.50;;;;;;4927702;29;20464;-73
2022/07/13 11:02:48;;;;;;;16.97;7.10;;;28.20;57.70;;;;;;4931517;29;20504;-71
2022/07/13 11:05:18;;;;;;;15.20;8.13;;;28.10;57.70;;;;;;4928036;29;20492;-70
2022/07/13 11:07:48;;;;;;;12.33;7.33;;;28.10;57.80;;;;;;4932475;29;20496;-72
2022/07/13 11:10:21;;;;;;;17.87;7.90;;;28.20;57.90;;;;;;4934484;29;20467;-71
2022/07/13 11:13:01;;;;;;;11.40;7.87;;;28.20;57.90;;;;;;4933941;29;20492;-70
2022/07/13 11:15:47;;;;;;;18.10;8.43;;;28.20;57.90;;;;;;4931216;29;20910;-71
2022/07/13 11:18:28;;;;;;;15.47;8.43;;;28.20;57.90;;;;;;4927063;29;20648;-72
2022/07/13 11:20:58;;;;;;;16.93;6.87;;;28.20;57.90;;;;;;4930319;29;20450;-71
2022/07/13 11:26:22;;;;;;;14.97;6.50;;;28.10;58.00;;;;;;4930243;29;20512;-69
2022/07/13 11:28:56;;;;;;;14.10;7.03;;;28.10;57.90;;;;;;4924253;29;20516;-70
2022/07/13 11:31:25;;;;;;;14.47;6.80;;;28.20;57.90;;;;;;4926615;29;20980;-70
2022/07/13 11:33:56;;;;;;;18.30;7.60;;;28.20;58.10;;;;;;4927282;29;20498;-70
2022/07/13 11:36:25;;;;;;;16.03;6.80;;;28.20;58.50;;;;;;4933605;29;20978;-70
2022/07/13 11:39:00;;;;;;;13.60;7.40;;;28.30;58.70;;;;;;4931532;29;20472;-71
2022/07/13 11:41:28;;;;;;;16.97;6.70;;;28.30;58.60;;;;;;4929794;29;20523;-70
2022/07/13 11:43:58;;;;;;;16.33;6.80;;;28.40;58.70;;;;;;4932224;29;20466;-70
2022/07/13 11:46:28;;;;;;;15.97;6.80;;;28.50;58.70;;;;;;4930735;29;20471;-73
2022/07/13 11:49:03;;;;;;;17.93;7.60;;;28.50;58.80;;;;;;4931121;29;20466;-68
2022/07/13 11:51:32;;;;;;;11.03;6.33;;;28.60;58.50;;;;;;4928782;29;20546;-72
2022/07/13 11:54:08;;;;;;;20.50;7.47;;;28.60;58.30;;;;;;4930387;29;20453;-69
2022/07/13 11:56:45;;;;;;;14.63;6.03;;;28.70;58.20;;;;;;4925663;29;20858;-72
2022/07/13 11:59:14;;;;;;;13.37;6.30;;;28.70;58.10;;;;;;4929713;29;20467;-70
2022/07/13 12:01:50;;;;;;;12.00;6.60;;;28.80;58.00;;;;;;4930554;29;20876;-69
2022/07/13 12:04:26;;;;;;;13.33;5.60;;;28.80;57.80;;;;;;4931405;29;20491;-69
2022/07/13 12:07:10;;;;;;;15.40;5.87;;;28.90;57.80;;;;;;4931369;29;20453;-68
2022/07/13 12:09:46;;;;;;;8.50;5.27;;;29.00;57.60;;;;;;4930983;29;20490;-69
2022/07/13 12:12:15;;;;;;;10.83;5.03;;;29.10;57.50;;;;;;4929205;29;20472;-70
2022/07/13 12:14:44;;;;;;;10.47;5.80;;;29.20;57.30;;;;;;4931369;29;20543;-73
2022/07/13 12:17:12;;;;;;;14.13;6.43;;;29.30;56.90;;;;;;4931710;29;20486;-69
2022/07/13 12:19:42;;;;;;;12.43;4.93;;;29.40;56.50;;;;;;4924431;29;20566;-70
2022/07/13 12:22:10;;;;;;;10.80;5.67;;;29.50;56.50;;;;;;4927520;29;20558;-70
2022/07/13 12:24:45;;;;;;;12.53;5.20;;;29.70;56.10;;;;;;4927000;29;21054;-70
2022/07/13 12:27:21;;;;;;;11.70;5.90;;;29.80;56.10;;;;;;4928591;29;20478;-69
2022/07/13 12:29:50;;;;;;;11.20;5.00;;;30.00;55.60;;;;;;4927713;29;20727;-69
2022/07/13 12:32:20;;;;;;;13.10;5.43;;;30.10;55.50;;;;;;4930104;29;20459;-70
2022/07/13 12:34:52;;;;;;;11.47;5.80;;;30.30;55.30;;;;;;4929021;29;20543;-70
2022/07/13 12:37:34;;;;;;;13.80;5.30;;;30.40;54.90;;;;;;4934417;29;20459;-70
2022/07/13 12:40:02;;;;;;;7.50;4.40;;;30.60;54.70;;;;;;4927924;29;20532;-69
2022/07/13 12:42:32;;;;;;;10.43;5.10;;;30.80;54.40;;;;;;4928813;29;20480;-70
2022/07/13 12:45:00;;;;;;;9.73;5.10;;;31.00;54.10;;;;;;4928647;29;20452;-69
2022/07/13 12:47:28;;;;;;;9.40;5.23;;;31.20;53.80;;;;;;4927873;29;20829;-69
2022/07/13 12:49:58;;;;;;;10.03;4.83;;;31.40;53.40;;;;;;4932294;29;20550;-70
2022/07/13 12:52:27;;;;;;;6.57;4.93;;;31.50;53.10;;;;;;4931794;29;20861;-74
2022/07/13 12:54:55;;;;;;;8.60;5.03;;;31.50;53.00;;;;;;4931015;29;20531;-69
2022/07/13 12:57:26;;;;;;;9.90;4.87;;;31.40;52.90;;;;;;4931477;29;20507;-69
2022/07/13 12:59:59;;;;;;;12.10;4.40;;;31.40;53.00;;;;;;4928593;29;20464;-68
2022/07/13 13:02:29;;;;;;;7.47;4.60;;;31.30;53.20;;;;;;4932313;29;20543;-69
2022/07/13 13:04:59;;;;;;;8.30;4.53;;;31.20;53.40;;;;;;4931843;29;20453;-69
2022/07/13 13:07:27;;;;;;;8.57;4.40;;;31.10;53.70;;;;;;4936312;29;20481;-69
2022/07/13 13:09:55;;;;;;;6.93;4.23;;;31.10;53.90;;;;;;4936047;29;20842;-69
2022/07/13 13:12:24;;;;;;;8.73;3.97;;;31.00;53.90;;;;;;4933532;29;20489;-69
2022/07/13 13:14:52;;;;;;;8.00;3.93;;;31.00;54.10;;;;;;4934600;29;20496;-70
2022/07/13 13:17:23;;;;;;;7.40;4.27;;;31.00;54.20;;;;;;4930812;29;20473;-69